Latest Weather Observations for Charles Point

IDD60901

Issued at 2:41 pm CST Tuesday 27 September 2016 (issued every 10 minutes, with the page automatically refreshed every 10 minutes)

About weather observations | Map of Darwin area stations | Latest observations for Darwin area | Other Formats
Station Details ID: 014031 Name: CHARLES POINT Lat: -12.39 Lon: 130.63 Height: 14.0 m
Data from the previous 72 hours. | See also: Recent months for locations in Northern Territory
Date/Time
CST
Temp
°C
App
Temp
°C
Dew
Point
°C
Rel
Hum
%
Delta-T
°C
Wind Press
QNH
hPa
Press
MSL
hPa
Rain since
9am
mm
Dir  Spd
km/h
Gust
km/h
Spd
kts
Gust
kts
27/02:30pm 31.7 34.2 23.2 60 5.9 NW 15 19 8 10 1009.0 1008.9 0.0
27/02:00pm 32.1 35.4 23.9 62 5.7 NW 13 19 7 10 1009.3 1009.2 0.0
27/01:30pm 31.7 34.6 23.8 63 5.5 NW 15 19 8 10 1009.7 1009.6 0.0
27/01:00pm 31.9 34.9 23.4 60 5.9 NW 13 17 7 9 1010.2 1010.1 0.0
27/12:30pm 31.6 34.6 23.4 61 5.7 NW 13 19 7 10 1010.8 1010.7 0.0
27/12:00pm 31.5 34.9 23.3 61 5.7 NW 11 17 6 9 1011.4 1011.3 0.0
27/11:30am 31.5 34.7 23.1 61 5.8 NW 11 17 6 9 1012.0 1011.9 0.0
27/11:00am 30.6 34.2 23.0 64 5.2 NW 9 15 5 8 1012.5 1012.4 0.0
27/10:30am 30.3 34.0 23.2 65 4.9 NW 9 15 5 8 1012.7 1012.6 0.0
27/10:00am 30.2 34.0 23.4 67 4.7 N 9 13 5 7 1012.9 1012.8 0.0
27/09:30am 29.5 32.7 23.0 68 4.4 NNW 11 13 6 7 1012.7 1012.6 0.0
27/09:00am 29.2 32.1 23.2 70 4.1 NNW 13 17 7 9 1012.7 1012.6 0.0
27/08:30am 29.1 32.3 23.1 70 4.1 NNW 11 17 6 9 1012.4 1012.3 0.0
27/08:00am 29.0 32.2 23.0 70 4.1 NNW 11 15 6 8 1012.2 1012.1 0.0
27/07:30am 28.6 32.3 23.3 73 3.6 NNW 9 15 5 8 1012.0 1011.9 0.0
27/07:00am 28.3 31.9 23.7 76 3.2 NNW 11 19 6 10 1011.6 1011.5 0.0
27/06:30am 28.3 32.4 23.9 77 3.0 NW 9 13 5 7 1011.3 1011.2 0.0
27/06:00am 28.4 31.9 23.5 75 3.4 NNW 11 17 6 9 1011.0 1010.9 0.0
27/05:30am 28.6 32.1 24.2 77 3.1 NNW 13 19 7 10 1010.7 1010.6 0.0
27/05:00am 28.6 32.2 24.4 78 2.9 NNW 13 20 7 11 1010.2 1010.1 0.0
27/04:30am 28.6 32.5 24.8 80 2.7 NW 13 19 7 10 1010.0 1009.9 0.0
27/04:00am 28.8 33.2 25.0 80 2.7 NW 11 19 6 10 1009.7 1009.6 0.0
27/03:30am 28.8 33.3 24.6 78 2.9 NW 9 15 5 8 1009.6 1009.5 0.0
27/03:00am 28.1 33.2 24.1 79 2.8 W 4 7 2 4 1009.6 1009.5 0.0
27/02:30am 27.9 32.4 23.7 78 2.9 W 6 9 3 5 1009.6 1009.5 0.0
27/02:00am 28.1 32.8 23.9 78 2.9 WNW 6 9 3 5 1009.8 1009.7 0.0
27/01:30am 28.1 32.8 23.9 78 2.9 WNW 6 11 3 6 1010.0 1009.9 0.0
27/01:00am 28.3 33.1 24.1 78 2.9 WNW 6 13 3 7 1010.3 1010.2 0.0
27/12:30am 28.2 33.3 24.0 78 2.9 W 4 7 2 4 1010.4 1010.3 0.0
27/12:00am 28.2 33.3 24.0 78 2.9 WSW 4 7 2 4 1010.7 1010.6 0.0
 
Date/Time
CST
Temp
°C
App
Temp
°C
Dew
Point
°C
Rel
Hum
%
Delta-T
°C
Wind Press
QNH
hPa
Press
MSL
hPa
Rain since
9am
mm
Dir  Spd
km/h
Gust
km/h
Spd
kts
Gust
kts
26/11:30pm 28.3 33.6 24.3 79 2.8 WSW 4 6 2 3 1011.0 1010.9 0.0
26/11:00pm 28.3 33.6 24.3 79 2.8 WSW 4 7 2 4 1011.1 1011.0 0.0
26/10:30pm 28.6 33.9 24.4 78 2.9 WSW 4 6 2 3 1011.1 1011.0 0.0
26/10:00pm 28.5 33.5 23.9 76 3.2 WSW 4 7 2 4 1011.0 1010.9 0.0
26/09:30pm 28.6 33.6 23.9 75 3.2 W 4 9 2 5 1011.0 1010.9 0.0
26/09:00pm 28.9 34.3 23.8 74 3.5 W 2 6 1 3 1010.6 1010.5 0.0
26/08:30pm 29.0 33.7 23.4 72 3.9 WNW 4 6 2 3 1010.3 1010.2 0.0
26/08:00pm 29.3 34.1 23.5 71 4.0 W 4 9 2 5 1010.0 1009.9 0.0
26/07:30pm 29.7 33.5 24.1 72 3.9 WNW 11 15 6 8 1009.7 1009.6 0.0
26/07:00pm 30.1 34.0 24.3 71 4.0 NW 11 15 6 8 1009.3 1009.2 0.0
26/06:30pm 30.4 34.7 23.6 67 4.7 NNW 7 11 4 6 1009.2 1009.1 0.0
26/06:00pm 30.5 33.8 23.2 65 5.0 NNW 11 17 6 9 1008.8 1008.7 0.0
26/05:30pm 30.7 33.7 23.4 65 5.0 N 13 17 7 9 1008.4 1008.3 0.0
26/05:00pm 30.9 34.8 23.0 62 5.4 NNW 7 11 4 6 1008.2 1008.1 0.0
26/04:30pm 31.1 35.0 23.0 62 5.6 NNW 7 11 4 6 1008.2 1008.1 0.0
26/04:00pm 31.5 35.3 22.8 60 6.0 NNW 7 9 4 5 1008.0 1007.9 0.0
26/03:30pm 32.8 36.2 23.4 57 6.5 NW 11 17 6 9 1008.0 1007.9 0.0
26/03:00pm 32.3 35.5 24.3 62 5.6 WNW 15 20 8 11 1007.9 1007.8 0.0
26/02:30pm 33.0 36.6 25.0 63 5.7 WNW 15 20 8 11 1008.2 1008.1 0.0
26/02:00pm 33.1 36.1 24.0 59 6.4 WNW 15 19 8 10 1008.7 1008.6 0.0
26/01:30pm 32.1 35.5 23.3 59 6.1 NW 11 17 6 9 1009.0 1008.9 0.0
26/01:00pm 31.8 35.7 24.9 67 4.9 NW 13 17 7 9 1009.5 1009.4 0.0
26/12:30pm 32.5 37.4 25.3 66 5.1 NW 9 15 5 8 1010.0 1009.9 0.0
26/12:00pm 31.8 36.0 24.7 66 5.0 NW 11 13 6 7 1010.3 1010.2 0.0
26/11:30am 31.6 36.5 24.7 67 4.9 NNW 7 9 4 5 1010.6 1010.5 0.0
26/11:00am 31.3 36.1 24.4 66 4.8 NNW 7 11 4 6 1010.9 1010.8 0.0
26/10:30am 30.6 34.9 24.3 69 4.4 NNW 9 11 5 6 1011.3 1011.2 0.0
26/10:00am 30.5 35.2 24.9 72 3.9 NNW 9 11 5 6 1011.7 1011.6 0.0
26/09:30am 30.1 34.9 24.5 72 3.9 NNW 7 9 4 5 1011.6 1011.5 0.0
26/09:00am 30.1 35.1 24.5 72 3.9 NNW 6 7 3 4 1011.4 1011.3 0.0
26/08:30am 30.4 35.8 24.5 70 4.1 NW 4 6 2 3 1011.1 1011.0 0.0
26/08:00am 29.6 35.0 24.5 74 3.6 NNW 4 6 2 3 1011.0 1010.9 0.0
26/07:30am 28.9 33.9 24.5 77 3.1 NW 6 7 3 4 1010.5 1010.4 0.0
26/07:00am 27.3 33.0 24.4 84 2.0 W 2 4 1 2 1009.9 1009.8 0.0
26/06:30am 26.6 32.4 23.9 85 1.9 CALM 0 0 0 0 1009.2 1009.1 0.0
26/06:00am 26.9 32.6 23.8 83 2.1 CALM 0 0 0 0 1008.9 1008.8 0.0
26/05:30am 26.7 31.9 23.6 83 2.1 W 2 4 1 2 1008.4 1008.3 0.0
26/05:00am 26.8 31.6 23.5 82 2.3 W 4 6 2 3 1008.2 1008.1 0.0
26/04:30am 27.2 31.9 23.4 80 2.6 W 4 6 2 3 1008.0 1007.9 0.0
26/04:00am 27.6 32.3 23.4 78 2.9 W 4 7 2 4 1008.0 1007.9 0.0
26/03:30am 27.7 32.5 23.5 78 2.9 W 4 7 2 4 1008.0 1007.9 0.0
26/03:00am 27.9 32.3 23.5 77 3.0 W 6 9 3 5 1008.2 1008.1 0.0
26/02:30am 27.9 32.6 23.3 76 3.2 WSW 4 9 2 5 1008.6 1008.5 0.0
26/02:00am 28.1 32.7 23.2 74 3.4 W 4 7 2 4 1008.9 1008.8 0.0
26/01:30am 28.4 32.7 23.3 74 3.5 W 6 13 3 7 1009.1 1009.0 0.0
26/01:00am 28.8 33.0 23.5 73 3.6 W 7 13 4 7 1009.4 1009.3 0.0
26/12:30am 28.6 32.8 23.1 72 3.8 W 6 9 3 5 1009.8 1009.7 0.0
26/12:00am 28.7 32.6 22.9 71 4.0 W 7 11 4 6 1010.0 1009.9 0.0
 
Date/Time
CST
Temp
°C
App
Temp
°C
Dew
Point
°C
Rel
Hum
%
Delta-T
°C
Wind Press
QNH
hPa
Press
MSL
hPa
Rain since
9am
mm
Dir  Spd
km/h
Gust
km/h
Spd
kts
Gust
kts
25/11:30pm 28.7 32.7 22.7 70 4.1 W 6 9 3 5 1010.2 1010.1 0.0
25/11:00pm 28.6 32.2 22.3 68 4.3 W 7 17 4 9 1010.2 1010.1 0.0
25/10:30pm 28.7 32.5 22.7 70 4.1 W 7 13 4 7 1010.3 1010.2 0.0
25/10:00pm 28.7 32.3 22.4 68 4.3 W 7 11 4 6 1010.3 1010.2 0.0
25/09:30pm 28.7 32.5 22.4 68 4.3 W 6 11 3 6 1010.1 1010.0 0.0
25/09:00pm 28.6 32.3 22.3 68 4.3 WSW 6 7 3 4 1009.8 1009.7 0.0
25/08:30pm 28.6 32.9 23.3 73 3.6 WSW 6 11 3 6 1009.4 1009.3 0.0
25/08:00pm 28.6 33.1 23.7 75 3.4 WSW 6 13 3 7 1008.9 1008.8 0.0
25/07:30pm 28.7 33.0 23.6 74 3.5 W 7 11 4 6 1008.7 1008.6 0.0
25/07:00pm 28.9 33.5 23.8 74 3.5 WSW 6 11 3 6 1008.3 1008.2 0.0
25/06:30pm 29.3 33.6 23.7 72 3.9 W 7 15 4 8 1008.0 1007.9 0.0
25/06:00pm 29.9 34.1 24.1 71 4.0 WSW 9 17 5 9 1007.7 1007.6 0.0
25/05:30pm 31.3 35.4 23.9 64 5.2 W 9 20 5 11 1007.5 1007.4 0.0
25/05:00pm 31.5 34.9 24.1 65 5.2 W 13 26 7 14 1007.3 1007.2 0.0
25/04:30pm 31.9 35.4 24.2 63 5.4 W 13 28 7 15 1007.4 1007.3 0.0
25/04:00pm 32.0 34.8 24.3 63 5.4 WNW 17 28 9 15 1007.5 1007.4 0.0
25/03:30pm 32.2 35.1 24.5 64 5.4 WNW 17 26 9 14 1007.7 1007.6 0.0
25/03:00pm 32.9 35.8 24.4 61 6.0 WNW 17 26 9 14 1007.9 1007.8 0.0
25/02:30pm 32.3 34.8 23.8 61 5.9 WNW 17 24 9 13 1008.1 1008.0 0.0
25/02:00pm 33.0 36.1 24.2 60 6.2 W 15 24 8 13 1008.2 1008.1 0.0
25/01:30pm 32.4 34.8 24.2 62 5.7 WNW 19 24 10 13 1008.7 1008.6 0.0
25/01:00pm 32.4 35.0 23.9 61 5.9 WNW 17 24 9 13 1009.2 1009.1 0.0
25/12:30pm 31.9 34.6 23.4 60 5.9 WNW 15 20 8 11 1009.4 1009.3 0.0
25/12:00pm 33.0 35.9 23.9 59 6.4 WNW 15 20 8 11 1010.1 1010.0 0.0
25/11:30am 32.3 34.6 24.1 62 5.7 WNW 19 24 10 13 1010.4 1010.3 0.0
25/11:00am 32.3 35.1 24.3 62 5.6 WNW 17 22 9 12 1010.9 1010.8 0.0
25/10:30am 31.3 34.7 24.7 68 4.6 WNW 15 20 8 11 1010.9 1010.8 0.0
25/10:00am 31.4 35.3 24.3 66 5.0 WNW 11 15 6 8 1010.9 1010.8 0.0
25/09:30am 30.9 34.0 22.8 62 5.6 WNW 11 15 6 8 1010.7 1010.6 0.0
25/09:00am 31.6 36.7 24.7 67 4.9 SW 6 13 3 7 1010.3 1010.2 0.0
25/08:30am 30.4 35.3 24.3 70 4.3 WSW 6 11 3 6 1010.0 1009.9 0.0
25/08:00am 28.6 33.0 23.5 74 3.5 SW 6 7 3 4 1009.7 1009.6 0.0
25/07:30am 27.2 31.8 23.2 79 2.7 SW 4 7 2 4 1009.4 1009.3 0.0
25/07:00am 27.1 31.8 23.3 80 2.6 SW 4 7 2 4 1009.1 1009.0 0.0
25/06:30am 27.0 31.4 23.5 81 2.4 WSW 6 7 3 4 1008.8 1008.7 0.0
25/06:00am 27.4 32.3 23.6 80 2.6 WSW 4 6 2 3 1008.5 1008.4 0.0
25/05:30am 27.9 33.2 23.7 78 2.9 WSW 2 4 1 2 1008.2 1008.1 0.0
25/05:00am 28.0 33.2 23.6 77 3.0 WSW 2 4 1 2 1007.9 1007.8 0.0
25/04:30am 28.2 33.2 23.8 77 3.0 W 4 7 2 4 1008.0 1007.9 0.0
25/04:00am 28.4 33.2 23.5 75 3.4 W 4 7 2 4 1008.0 1007.9 0.0
25/03:30am 28.6 32.4 23.5 74 3.5 W 9 20 5 11 1007.8 1007.7 0.0
25/03:00am 28.7 32.3 24.3 77 3.1 WNW 13 20 7 11 1007.8 1007.7 0.0
25/02:30am 28.4 32.6 23.5 75 3.4 W 7 13 4 7 1008.1 1008.0 0.0
25/02:00am 28.3 32.7 23.4 75 3.4 WSW 6 9 3 5 1008.4 1008.3 0.0
25/01:30am 28.3 32.5 23.4 75 3.4 W 7 11 4 6 1008.8 1008.7 0.0
25/01:00am 28.3 32.5 23.2 74 3.5 WSW 6 9 3 5 1009.1 1009.0 0.0
25/12:30am 28.3 32.5 23.2 74 3.5 SW 6 7 3 4 1009.5 1009.4 0.0
25/12:00am 28.3 32.8 23.0 73 3.6 SW 4 7 2 4 1009.7 1009.6 0.0
 
Date/Time
CST
Temp
°C
App
Temp
°C
Dew
Point
°C
Rel
Hum
%
Delta-T
°C
Wind Press
QNH
hPa
Press
MSL
hPa
Rain since
9am
mm
Dir  Spd
km/h
Gust
km/h
Spd
kts
Gust
kts
24/11:30pm 28.1 32.4 22.6 72 3.7 WSW 4 7 2 4 1009.8 1009.7 0.0
24/11:00pm 27.8 31.9 22.3 72 3.7 WSW 4 7 2 4 1010.0 1009.9 0.0
24/10:30pm 27.9 31.6 22.2 71 3.8 WSW 6 7 3 4 1009.8 1009.7 0.0
24/10:00pm 27.9 31.8 21.9 70 4.0 SW 4 9 2 5 1009.6 1009.5 0.0
24/09:30pm 28.1 31.6 21.9 69 4.2 WSW 6 7 3 4 1009.6 1009.5 0.0
24/09:00pm 28.1 31.9 21.6 68 4.4 WSW 4 6 2 3 1009.4 1009.3 0.0
24/08:30pm 28.3 32.2 21.8 68 4.4 WSW 4 9 2 5 1008.9 1008.8 0.0
24/08:00pm 28.4 31.9 21.9 68 4.4 W 6 9 3 5 1008.7 1008.6 0.0
24/07:30pm 28.3 32.4 22.3 70 4.1 WSW 4 6 2 3 1008.5 1008.4 0.0
24/07:00pm 28.8 33.3 22.3 68 4.4 WSW 2 2 1 1 1008.1 1008.0 0.0
24/06:30pm 29.6 33.6 22.1 64 5.1 WSW 4 7 2 4 1007.7 1007.6 0.0
24/06:00pm 30.7 33.7 22.0 59 5.9 WNW 9 13 5 7 1007.3 1007.2 0.0
24/05:30pm 31.4 34.4 22.7 60 6.0 WNW 11 17 6 9 1006.7 1006.6 0.0
24/05:00pm 31.8 35.1 22.5 58 6.4 W 9 15 5 8 1006.5 1006.4 0.0
24/04:30pm 32.1 35.4 22.5 57 6.6 WNW 9 17 5 9 1006.7 1006.6 0.0
24/04:00pm 31.9 35.6 23.2 60 6.0 NW 9 13 5 7 1006.7 1006.6 0.0
24/03:30pm 31.6 35.3 23.2 61 5.8 NW 9 13 5 7 1007.0 1006.9 0.0
24/03:00pm 30.8 34.3 22.9 62 5.4 NNW 9 13 5 7 1007.3 1007.2 0.0

Latest Capital City Observations: Canberra | Sydney | Melbourne | Brisbane | Adelaide | Perth | Hobart | Darwin

Other Formats:

Comma delimited format used in spreadsheet applications
http://www.bom.gov.au/fwo/IDD60901/IDD60901.99510.axf

JavaScript Object Notation format (JSON) in row-major order
http://www.bom.gov.au/fwo/IDD60901/IDD60901.99510.json